createdAt,value
2022-12-18T00:01:15.668Z,-2.40
2022-12-18T00:03:42.760Z,-2.40
2022-12-18T00:06:10.241Z,-2.40
2022-12-18T00:08:37.023Z,-2.40
2022-12-18T00:11:09.675Z,-2.40
2022-12-18T00:13:37.029Z,-2.40
2022-12-18T00:16:06.979Z,-2.40
2022-12-18T00:18:34.036Z,-2.50
2022-12-18T00:21:02.419Z,-2.50
2022-12-18T00:23:30.278Z,-2.50
2022-12-18T00:26:01.163Z,-2.50
2022-12-18T00:28:28.157Z,-2.50
2022-12-18T00:31:05.929Z,-2.50
2022-12-18T00:33:32.898Z,-2.40
2022-12-18T00:36:07.061Z,-2.30
2022-12-18T00:38:34.563Z,-2.30
2022-12-18T00:41:01.297Z,-2.30
2022-12-18T00:43:28.525Z,-2.30
2022-12-18T00:45:55.651Z,-2.30
2022-12-18T00:48:23.068Z,-2.30
2022-12-18T00:50:50.724Z,-2.30
2022-12-18T00:53:17.955Z,-2.20
2022-12-18T00:55:46.044Z,-2.30
2022-12-18T00:58:14.708Z,-2.20
2022-12-18T01:00:41.820Z,-2.30
2022-12-18T01:03:09.090Z,-2.30
2022-12-18T01:05:39.621Z,-2.20
2022-12-18T01:08:06.371Z,-2.20
2022-12-18T01:10:33.090Z,-2.10
2022-12-18T01:12:59.823Z,-2.20
2022-12-18T01:15:26.541Z,-2.10
2022-12-18T01:17:54.166Z,-2.10
2022-12-18T01:20:21.089Z,-2.10
2022-12-18T01:22:47.860Z,-2.10
2022-12-18T01:25:14.564Z,-2.00
2022-12-18T01:27:41.296Z,-2.00
2022-12-18T01:30:08.540Z,-2.10
2022-12-18T01:32:35.383Z,-2.10
2022-12-18T01:35:02.116Z,-2.10
2022-12-18T01:37:28.834Z,-2.10
2022-12-18T01:39:55.655Z,-2.20
2022-12-18T01:42:22.967Z,-2.30
2022-12-18T01:45:17.294Z,-2.30
2022-12-18T01:48:07.536Z,-2.30
2022-12-18T01:50:41.303Z,-2.30
2022-12-18T01:53:17.014Z,-2.30
2022-12-18T01:55:50.466Z,-2.30
2022-12-18T01:58:18.515Z,-2.30
2022-12-18T02:00:45.599Z,-2.30
2022-12-18T02:03:13.101Z,-2.30
2022-12-18T02:05:47.026Z,-2.30
2022-12-18T02:08:22.774Z,-2.30
2022-12-18T02:11:00.019Z,-2.30
2022-12-18T02:13:35.821Z,-2.30
2022-12-18T02:16:31.346Z,-2.30
2022-12-18T02:19:05.002Z,-2.30
2022-12-18T02:21:31.674Z,-2.30
2022-12-18T02:24:20.978Z,-2.40
2022-12-18T02:26:56.076Z,-2.40
2022-12-18T02:29:28.967Z,-2.40
2022-12-18T02:32:00.282Z,-2.40
2022-12-18T02:34:35.023Z,-2.40
2022-12-18T02:37:05.872Z,-2.40
2022-12-18T02:39:34.736Z,-2.40
2022-12-18T02:42:08.539Z,-2.40
2022-12-18T02:44:46.674Z,-2.40
2022-12-18T02:47:16.138Z,-2.40
2022-12-18T02:50:08.781Z,-2.50
2022-12-18T02:52:35.629Z,-2.40
2022-12-18T02:55:17.752Z,-2.40
2022-12-18T02:57:59.518Z,-2.30
2022-12-18T03:00:32.193Z,-2.30
2022-12-18T03:03:21.080Z,-2.30
2022-12-18T03:06:01.319Z,-2.40
2022-12-18T03:08:38.300Z,-2.40
2022-12-18T03:11:10.124Z,-2.40
2022-12-18T03:13:54.013Z,-2.40
2022-12-18T03:16:29.299Z,-2.40
2022-12-18T03:19:00.035Z,-2.30
2022-12-18T03:21:37.016Z,-2.30
2022-12-18T03:24:08.549Z,-2.30
2022-12-18T03:26:38.130Z,-2.30
2022-12-18T03:29:10.365Z,-2.20
2022-12-18T03:31:41.061Z,-2.30
2022-12-18T03:34:16.447Z,-2.20
2022-12-18T03:36:43.410Z,-2.20
2022-12-18T03:39:10.228Z,-2.10
2022-12-18T03:41:48.116Z,-2.10
2022-12-18T03:44:17.701Z,-2.20
2022-12-18T03:46:53.206Z,-2.20
2022-12-18T03:50:02.291Z,-2.20
2022-12-18T03:52:39.290Z,-2.30
2022-12-18T03:55:08.048Z,-2.30
2022-12-18T03:57:35.959Z,-2.40
2022-12-18T04:00:07.905Z,-2.40
2022-12-18T04:02:36.203Z,-2.40
2022-12-18T04:05:05.996Z,-2.40
2022-12-18T04:07:34.046Z,-2.50
2022-12-18T04:10:03.816Z,-2.40
2022-12-18T04:12:30.988Z,-2.40
2022-12-18T04:14:57.936Z,-2.40
2022-12-18T04:17:25.307Z,-2.40
2022-12-18T04:19:52.044Z,-2.40
2022-12-18T04:22:19.877Z,-2.30
2022-12-18T04:24:47.324Z,-2.30
2022-12-18T04:27:14.069Z,-2.10
2022-12-18T04:29:41.159Z,-2.00
2022-12-18T04:32:08.738Z,-1.90
2022-12-18T04:34:35.519Z,-1.80
2022-12-18T04:37:02.403Z,-1.80
2022-12-18T04:39:29.137Z,-1.80
2022-12-18T04:41:55.815Z,-1.70
2022-12-18T04:44:23.130Z,-1.80
2022-12-18T04:46:50.273Z,-1.70
2022-12-18T04:49:17.161Z,-1.70
2022-12-18T04:51:43.864Z,-1.70
2022-12-18T04:54:10.650Z,-1.80
2022-12-18T04:56:37.495Z,-1.80
2022-12-18T04:59:04.216Z,-1.80
2022-12-18T05:01:34.550Z,-1.80
2022-12-18T05:04:02.646Z,-1.80
2022-12-18T05:06:29.767Z,-1.80
2022-12-18T05:08:56.613Z,-1.90
2022-12-18T05:11:23.437Z,-1.90
2022-12-18T05:13:50.311Z,-2.00
2022-12-18T05:16:17.279Z,-2.00
2022-12-18T05:18:44.157Z,-2.00
2022-12-18T05:21:10.900Z,-2.10
2022-12-18T05:23:38.155Z,-2.10
2022-12-18T05:26:06.888Z,-2.10
2022-12-18T05:28:36.011Z,-2.20
2022-12-18T05:31:04.301Z,-2.20
2022-12-18T05:33:33.520Z,-2.20
2022-12-18T05:36:03.696Z,-2.20
2022-12-18T05:38:32.040Z,-2.20
2022-12-18T05:40:58.833Z,-2.30
2022-12-18T05:43:26.785Z,-2.30
2022-12-18T05:45:53.934Z,-2.30
2022-12-18T05:48:21.567Z,-2.20
2022-12-18T05:50:49.554Z,-2.20
2022-12-18T05:53:18.238Z,-2.20
2022-12-18T05:55:45.564Z,-2.20
2022-12-18T05:58:13.622Z,-2.10
2022-12-18T06:00:42.505Z,-2.10
2022-12-18T06:03:11.074Z,-2.00
2022-12-18T06:05:43.018Z,-2.00
2022-12-18T06:08:10.068Z,-2.00
2022-12-18T06:10:37.262Z,-2.00
2022-12-18T06:13:04.877Z,-2.00
2022-12-18T06:15:31.834Z,-2.00
2022-12-18T06:17:58.901Z,-2.10
2022-12-18T06:20:30.421Z,-2.10
2022-12-18T06:23:00.020Z,-2.20
2022-12-18T06:25:27.099Z,-2.30
2022-12-18T06:27:53.885Z,-2.30
2022-12-18T06:30:20.723Z,-2.40
2022-12-18T06:32:54.684Z,-2.50
2022-12-18T06:35:23.512Z,-2.50
2022-12-18T06:37:50.232Z,-2.60
2022-12-18T06:40:18.079Z,-2.60
2022-12-18T06:42:44.786Z,-2.60
2022-12-18T06:45:12.365Z,-2.60
2022-12-18T06:47:39.135Z,-2.60
2022-12-18T06:50:06.506Z,-2.60
2022-12-18T06:52:33.945Z,-2.60
2022-12-18T06:55:01.343Z,-2.70
2022-12-18T06:57:28.182Z,-2.70
2022-12-18T06:59:55.056Z,-2.70
2022-12-18T07:02:21.952Z,-2.60
2022-12-18T07:04:51.383Z,-2.60
2022-12-18T07:07:18.398Z,-2.60
2022-12-18T07:09:45.146Z,-2.50
2022-12-18T07:12:11.814Z,-2.50
2022-12-18T07:14:38.500Z,-2.40
2022-12-18T07:17:05.372Z,-2.40
2022-12-18T07:19:33.419Z,-2.40
2022-12-18T07:22:00.502Z,-2.40
2022-12-18T07:24:27.224Z,-2.40
2022-12-18T07:26:53.953Z,-2.40
2022-12-18T07:29:20.771Z,-2.40
2022-12-18T07:31:47.478Z,-2.40
2022-12-18T07:34:15.979Z,-2.40
2022-12-18T07:36:42.754Z,-2.50
2022-12-18T07:39:11.550Z,-2.50
2022-12-18T07:41:41.345Z,-2.40
2022-12-18T07:44:12.519Z,-2.40
2022-12-18T07:46:39.679Z,-2.40
2022-12-18T07:49:06.476Z,-2.40
2022-12-18T07:51:33.161Z,-2.40
2022-12-18T07:53:59.825Z,-2.30
2022-12-18T07:56:28.563Z,-2.30
2022-12-18T07:58:56.693Z,-2.30
2022-12-18T08:01:23.708Z,-2.30
2022-12-18T08:03:50.581Z,-2.30
2022-12-18T08:06:19.064Z,-2.30
2022-12-18T08:08:45.759Z,-2.20
2022-12-18T08:11:12.474Z,-2.20
2022-12-18T08:13:39.533Z,-2.20
2022-12-18T08:16:08.289Z,-2.20
2022-12-18T08:18:36.617Z,-2.20
2022-12-18T08:21:16.038Z,-2.10
2022-12-18T08:23:43.850Z,-2.00
2022-12-18T08:26:14.280Z,-1.90
2022-12-18T08:28:41.847Z,-1.80
2022-12-18T08:31:09.350Z,-1.60
2022-12-18T08:33:38.706Z,-1.50
2022-12-18T08:36:06.522Z,-1.50
2022-12-18T08:38:34.262Z,-1.40
2022-12-18T08:41:01.967Z,-1.30
2022-12-18T08:43:47.369Z,-1.30
2022-12-18T08:46:17.937Z,-1.30
2022-12-18T08:48:44.920Z,-1.20
2022-12-18T08:51:11.980Z,-1.10
2022-12-18T08:53:39.304Z,-1.10
2022-12-18T08:56:06.712Z,-1.00
2022-12-18T08:58:33.396Z,-1.00
2022-12-18T09:01:10.099Z,-0.90
2022-12-18T09:03:37.788Z,-0.90
2022-12-18T09:06:05.467Z,-0.80
2022-12-18T09:08:32.296Z,-0.70
2022-12-18T09:10:59.041Z,-0.60
2022-12-18T09:13:25.717Z,-0.40
2022-12-18T09:15:55.284Z,-0.30
2022-12-18T09:18:23.794Z,-0.10
2022-12-18T09:20:54.163Z,0.00
2022-12-18T09:23:21.914Z,0.20
2022-12-18T09:25:49.268Z,0.30
2022-12-18T09:28:19.118Z,0.30
2022-12-18T09:30:50.133Z,0.40
2022-12-18T09:33:18.229Z,0.40
2022-12-18T09:35:46.269Z,0.50
2022-12-18T09:38:16.029Z,0.60
2022-12-18T09:40:54.616Z,0.70
2022-12-18T09:43:28.985Z,0.90
2022-12-18T09:46:03.612Z,1.10
2022-12-18T09:48:36.312Z,1.30
2022-12-18T09:51:12.417Z,1.40
2022-12-18T09:53:42.189Z,1.50
2022-12-18T09:56:17.147Z,1.60
2022-12-18T09:58:50.745Z,1.70
2022-12-18T10:01:22.564Z,1.80
2022-12-18T10:03:50.044Z,1.90
2022-12-18T10:06:20.050Z,1.90
2022-12-18T10:09:12.337Z,1.90
2022-12-18T10:11:50.073Z,2.00
2022-12-18T10:14:28.754Z,2.00
2022-12-18T10:17:11.888Z,2.00
2022-12-18T10:19:41.944Z,2.10
2022-12-18T10:22:39.634Z,2.20
2022-12-18T10:25:24.502Z,2.20
2022-12-18T10:28:01.485Z,2.20
2022-12-18T10:30:28.635Z,2.30
2022-12-18T10:32:57.024Z,2.30
2022-12-18T10:35:26.489Z,2.40
2022-12-18T10:38:04.297Z,2.40
2022-12-18T10:40:31.117Z,2.50
2022-12-18T10:43:27.227Z,2.50
2022-12-18T10:46:08.581Z,2.60
2022-12-18T10:48:40.552Z,2.60
2022-12-18T10:51:13.340Z,2.60
2022-12-18T10:53:43.622Z,2.70
2022-12-18T10:56:10.805Z,2.70
2022-12-18T10:58:39.990Z,2.80
2022-12-18T11:01:16.859Z,2.80
2022-12-18T11:04:01.669Z,2.90
2022-12-18T11:06:29.240Z,2.90
2022-12-18T11:09:07.865Z,3.00
2022-12-18T11:11:39.110Z,3.00
2022-12-18T11:14:13.477Z,3.00
2022-12-18T11:17:24.817Z,3.10
2022-12-18T11:19:42.319Z,3.10
2022-12-18T11:22:27.247Z,3.10
2022-12-18T11:25:32.412Z,3.10
2022-12-18T11:27:55.521Z,3.10
2022-12-18T11:30:22.295Z,3.10
2022-12-18T11:32:56.906Z,3.20
2022-12-18T11:35:47.713Z,3.20
2022-12-18T11:38:20.225Z,3.20
2022-12-18T11:40:52.697Z,3.30
2022-12-18T11:43:33.030Z,3.20
2022-12-18T11:46:16.096Z,3.30
2022-12-18T11:49:12.037Z,3.30
2022-12-18T11:51:46.049Z,3.30
2022-12-18T11:54:17.184Z,3.30
2022-12-18T11:56:50.151Z,3.30
2022-12-18T11:59:35.726Z,3.30
2022-12-18T12:02:25.137Z,3.30
2022-12-18T12:05:01.252Z,3.30
2022-12-18T12:08:06.716Z,3.30
2022-12-18T12:10:39.320Z,3.30
2022-12-18T12:13:30.600Z,3.40
2022-12-18T12:16:05.168Z,3.40
2022-12-18T12:19:06.940Z,3.40
2022-12-18T12:21:48.931Z,3.40
2022-12-18T12:24:21.479Z,3.40
2022-12-18T12:27:07.172Z,3.40
2022-12-18T12:29:37.138Z,3.50
2022-12-18T12:32:22.050Z,3.50
2022-12-18T12:35:06.040Z,3.50
2022-12-18T12:37:38.790Z,3.50
2022-12-18T12:40:26.818Z,3.40
2022-12-18T12:43:16.093Z,3.50
2022-12-18T12:45:48.056Z,3.50
2022-12-18T12:48:40.418Z,3.50
2022-12-18T12:51:28.817Z,3.60
2022-12-18T12:53:58.948Z,3.60
2022-12-18T12:56:37.056Z,3.60
2022-12-18T12:59:10.162Z,3.60
2022-12-18T13:01:56.221Z,3.50
2022-12-18T13:04:52.283Z,3.60
2022-12-18T13:07:27.185Z,3.60
2022-12-18T13:10:17.135Z,3.50
2022-12-18T13:13:09.182Z,3.50
2022-12-18T13:15:42.263Z,3.50
2022-12-18T13:18:09.386Z,3.40
2022-12-18T13:20:55.348Z,3.40
2022-12-18T13:23:25.123Z,3.40
2022-12-18T13:25:59.727Z,3.40
2022-12-18T13:28:48.608Z,3.30
2022-12-18T13:31:34.938Z,3.30
2022-12-18T13:34:26.971Z,3.30
2022-12-18T13:36:57.311Z,3.20
2022-12-18T13:39:42.235Z,3.20
2022-12-18T13:42:09.543Z,3.20
2022-12-18T13:44:41.791Z,3.10
2022-12-18T13:47:34.203Z,3.10
2022-12-18T13:50:09.931Z,3.00
2022-12-18T13:52:40.127Z,3.00
2022-12-18T13:55:16.686Z,2.90
2022-12-18T13:57:43.400Z,2.90
2022-12-18T14:00:30.339Z,2.80
2022-12-18T14:02:59.087Z,2.80
2022-12-18T14:05:26.623Z,2.80
2022-12-18T14:07:54.587Z,2.70
2022-12-18T14:13:11.927Z,2.60
2022-12-18T14:15:48.896Z,2.50
2022-12-18T14:18:25.969Z,2.50
2022-12-18T14:20:56.769Z,2.40
2022-12-18T14:23:33.102Z,2.30
2022-12-18T14:26:05.694Z,2.30
2022-12-18T14:28:33.246Z,2.30
2022-12-18T14:30:59.987Z,2.20
2022-12-18T14:33:28.519Z,2.20
2022-12-18T14:36:06.483Z,2.20
2022-12-18T14:38:40.971Z,2.20
2022-12-18T14:41:10.560Z,2.10
2022-12-18T14:43:40.427Z,2.10
2022-12-18T14:46:40.074Z,2.10
2022-12-18T14:49:22.796Z,2.10
2022-12-18T14:51:52.202Z,2.10
2022-12-18T14:54:27.010Z,2.10
2022-12-18T14:57:19.910Z,2.10
2022-12-18T14:59:46.634Z,2.00
2022-12-18T15:02:26.207Z,2.00
2022-12-18T15:05:05.174Z,2.00
2022-12-18T15:07:45.371Z,2.10
2022-12-18T15:10:32.790Z,2.00
2022-12-18T15:13:03.541Z,2.00
2022-12-18T15:15:40.478Z,2.00
2022-12-18T15:18:12.977Z,2.00
2022-12-18T15:20:49.472Z,1.90
2022-12-18T15:23:44.474Z,1.90
2022-12-18T15:26:13.350Z,1.90
2022-12-18T15:28:53.786Z,1.90
2022-12-18T15:31:24.272Z,1.80
2022-12-18T15:33:53.105Z,1.80
2022-12-18T15:36:26.261Z,1.80
2022-12-18T15:38:56.224Z,1.80
2022-12-18T15:41:32.037Z,1.70
2022-12-18T15:43:59.984Z,1.70
2022-12-18T15:46:27.728Z,1.70
2022-12-18T15:49:01.431Z,1.70
2022-12-18T15:51:32.276Z,1.70
2022-12-18T15:54:01.998Z,1.60
2022-12-18T15:56:47.676Z,1.60
2022-12-18T15:59:17.360Z,1.60
2022-12-18T16:01:46.808Z,1.60
2022-12-18T16:04:16.562Z,1.50
2022-12-18T16:07:12.749Z,1.50
2022-12-18T16:09:30.378Z,1.50
2022-12-18T16:11:57.085Z,1.50
2022-12-18T16:14:27.231Z,1.50
2022-12-18T16:16:57.001Z,1.40
2022-12-18T16:19:24.465Z,1.40
2022-12-18T16:21:53.477Z,1.40
2022-12-18T16:24:25.687Z,1.40
2022-12-18T16:26:53.286Z,1.40
2022-12-18T16:29:25.624Z,1.40
2022-12-18T16:31:53.027Z,1.40
2022-12-18T16:34:35.695Z,1.40
2022-12-18T16:37:06.524Z,1.40
2022-12-18T16:39:38.021Z,1.40
2022-12-18T16:42:06.890Z,1.40
2022-12-18T16:44:36.614Z,1.30
2022-12-18T16:47:04.656Z,1.30
2022-12-18T16:49:31.933Z,1.30
2022-12-18T16:51:58.812Z,1.30
2022-12-18T16:54:25.658Z,1.30
2022-12-18T16:56:52.638Z,1.30
2022-12-18T16:59:19.923Z,1.20
2022-12-18T17:01:47.235Z,1.20
2022-12-18T17:04:15.162Z,1.20
2022-12-18T17:06:46.000Z,1.20
2022-12-18T17:09:17.187Z,1.20
2022-12-18T17:11:44.195Z,1.20
2022-12-18T17:14:17.395Z,1.20
2022-12-18T17:16:44.172Z,1.20
2022-12-18T17:19:16.875Z,1.10
2022-12-18T17:21:45.559Z,1.10
2022-12-18T17:24:12.299Z,1.10
2022-12-18T17:26:39.039Z,1.10
2022-12-18T17:29:06.250Z,1.10
2022-12-18T17:31:34.227Z,1.00
2022-12-18T17:34:03.125Z,1.00
2022-12-18T17:36:32.268Z,1.00
2022-12-18T17:39:01.594Z,1.00
2022-12-18T17:41:29.822Z,1.00
2022-12-18T17:44:00.151Z,1.00
2022-12-18T17:46:29.007Z,1.00
2022-12-18T17:48:56.936Z,1.00
2022-12-18T17:51:24.013Z,0.90
2022-12-18T17:53:51.037Z,0.90
2022-12-18T17:56:19.963Z,0.90
2022-12-18T17:58:48.032Z,0.90
2022-12-18T18:01:17.495Z,0.90
2022-12-18T18:03:45.564Z,0.90
2022-12-18T18:06:15.571Z,0.90
2022-12-18T18:08:42.637Z,0.90
2022-12-18T18:11:32.650Z,0.90
2022-12-18T18:14:02.686Z,0.90
2022-12-18T18:16:38.219Z,0.90
2022-12-18T18:19:08.799Z,0.90
2022-12-18T18:21:39.900Z,0.90
2022-12-18T18:24:09.441Z,0.90
2022-12-18T18:26:36.976Z,0.80
2022-12-18T18:29:06.116Z,0.80
2022-12-18T18:31:35.303Z,0.80
2022-12-18T18:34:08.518Z,0.70
2022-12-18T18:36:35.337Z,0.70
2022-12-18T18:39:02.324Z,0.70
2022-12-18T18:41:30.477Z,0.70
2022-12-18T18:43:58.183Z,0.70
2022-12-18T18:46:25.533Z,0.70
2022-12-18T18:48:52.541Z,0.70
2022-12-18T18:51:21.389Z,0.70
2022-12-18T18:53:50.789Z,0.70
2022-12-18T18:59:07.989Z,0.70
2022-12-18T19:01:34.997Z,0.70
2022-12-18T19:04:01.909Z,0.70
2022-12-18T19:06:29.384Z,0.70
2022-12-18T19:08:57.169Z,0.60
2022-12-18T19:11:44.056Z,0.70
2022-12-18T19:14:13.120Z,0.60
2022-12-18T19:16:40.809Z,0.60
2022-12-18T19:19:09.416Z,0.60
2022-12-18T19:21:38.105Z,0.60
2022-12-18T19:24:05.552Z,0.60
2022-12-18T19:26:32.507Z,0.60
2022-12-18T19:29:07.453Z,0.60
2022-12-18T19:31:36.768Z,0.60
2022-12-18T19:34:06.745Z,0.60
2022-12-18T19:36:36.156Z,0.60
2022-12-18T19:39:09.818Z,0.50
2022-12-18T19:41:36.599Z,0.50
2022-12-18T19:44:08.201Z,0.50
2022-12-18T19:46:35.838Z,0.50
2022-12-18T19:49:02.791Z,0.50
2022-12-18T19:51:31.356Z,0.60
2022-12-18T19:54:01.433Z,0.60
2022-12-18T19:56:31.465Z,0.60
2022-12-18T19:58:59.108Z,0.60
2022-12-18T20:01:27.053Z,0.60
2022-12-18T20:03:55.277Z,0.60
2022-12-18T20:06:31.759Z,0.60
2022-12-18T20:09:01.443Z,0.70
2022-12-18T20:11:33.448Z,0.70
2022-12-18T20:14:08.351Z,0.70
2022-12-18T20:16:35.582Z,0.70
2022-12-18T20:19:02.631Z,0.70
2022-12-18T20:21:29.861Z,0.80
2022-12-18T20:23:56.799Z,0.80
2022-12-18T20:26:24.768Z,0.80
2022-12-18T20:28:52.686Z,0.80
2022-12-18T20:31:19.546Z,0.80
2022-12-18T20:33:47.636Z,0.80
2022-12-18T20:36:21.134Z,0.90
2022-12-18T20:38:50.069Z,0.90
2022-12-18T20:41:19.494Z,0.90
2022-12-18T20:43:46.779Z,1.00
2022-12-18T20:46:15.186Z,1.00
2022-12-18T20:48:43.297Z,1.00
2022-12-18T20:51:16.179Z,1.00
2022-12-18T20:53:43.607Z,1.00
2022-12-18T20:56:14.627Z,1.00
2022-12-18T20:58:47.087Z,1.10
2022-12-18T21:01:16.839Z,1.10
2022-12-18T21:03:45.882Z,1.10
2022-12-18T21:06:13.742Z,1.00
2022-12-18T21:08:40.465Z,1.00
2022-12-18T21:12:06.981Z,1.00
2022-12-18T21:14:33.889Z,1.00
2022-12-18T21:17:01.923Z,0.90
2022-12-18T21:19:30.284Z,0.90
2022-12-18T21:21:57.739Z,0.90
2022-12-18T21:24:25.137Z,0.90
2022-12-18T21:26:52.615Z,0.80
2022-12-18T21:29:23.298Z,0.80
2022-12-18T21:31:51.044Z,0.80
2022-12-18T21:34:23.649Z,0.70
2022-12-18T21:36:50.322Z,0.70
2022-12-18T21:39:17.975Z,0.80
2022-12-18T21:42:05.545Z,0.80
2022-12-18T21:44:32.812Z,0.90
2022-12-18T21:47:15.281Z,0.90
2022-12-18T21:49:49.300Z,0.90
2022-12-18T21:52:15.970Z,0.90
2022-12-18T21:54:42.692Z,0.90
2022-12-18T21:57:11.068Z,0.90
2022-12-18T21:59:39.991Z,0.90
2022-12-18T22:02:15.756Z,0.90
2022-12-18T22:04:43.871Z,1.00
2022-12-18T22:07:11.494Z,0.90
2022-12-18T22:09:38.716Z,1.00
2022-12-18T22:12:06.292Z,1.10
2022-12-18T22:14:33.028Z,1.10
2022-12-18T22:16:59.788Z,1.00
2022-12-18T22:19:27.056Z,1.00
2022-12-18T22:21:54.852Z,1.00
2022-12-18T22:24:26.457Z,1.00
2022-12-18T22:27:01.750Z,0.90
2022-12-18T22:29:47.639Z,0.90
2022-12-18T22:32:23.394Z,0.90
2022-12-18T22:35:05.922Z,0.90
2022-12-18T22:37:35.034Z,0.90
2022-12-18T22:40:02.948Z,0.90
2022-12-18T22:42:31.059Z,0.80
2022-12-18T22:44:57.775Z,0.90
2022-12-18T22:47:29.454Z,0.80
2022-12-18T22:49:57.085Z,0.90
2022-12-18T22:52:24.282Z,0.90
2022-12-18T22:54:53.613Z,0.80
2022-12-18T22:57:21.957Z,0.90
2022-12-18T22:59:52.158Z,0.90
2022-12-18T23:02:20.081Z,0.90
2022-12-18T23:04:47.677Z,0.90
2022-12-18T23:07:15.167Z,1.00
2022-12-18T23:09:41.874Z,1.00
2022-12-18T23:12:19.457Z,1.00
2022-12-18T23:14:47.172Z,1.00
2022-12-18T23:17:14.037Z,1.00
2022-12-18T23:19:47.150Z,1.00
2022-12-18T23:22:15.506Z,1.00
2022-12-18T23:24:42.619Z,1.10
2022-12-18T23:27:11.715Z,1.00
2022-12-18T23:29:39.603Z,1.10
2022-12-18T23:32:06.615Z,1.10
2022-12-18T23:34:33.337Z,1.10
2022-12-18T23:37:01.020Z,1.10
2022-12-18T23:39:29.800Z,1.10
2022-12-18T23:42:00.775Z,1.10
2022-12-18T23:44:27.947Z,1.10
2022-12-18T23:46:55.479Z,1.10
2022-12-18T23:49:22.435Z,1.10
2022-12-18T23:51:49.479Z,1.10
2022-12-18T23:54:16.384Z,1.10
2022-12-18T23:56:43.173Z,1.10
2022-12-18T23:59:10.092Z,1.20
